createdAt,value
2022-12-18T00:01:30.283Z,38.73
2022-12-18T00:03:58.761Z,39.17
2022-12-18T00:06:28.238Z,36.67
2022-12-18T00:08:57.770Z,39.63
2022-12-18T00:11:27.708Z,37.23
2022-12-18T00:13:58.036Z,51.97
2022-12-18T00:16:26.930Z,37.47
2022-12-18T00:18:57.318Z,43.70
2022-12-18T00:21:27.343Z,35.33
2022-12-18T00:23:55.971Z,35.23
2022-12-18T00:26:26.056Z,36.37
2022-12-18T00:29:06.625Z,37.77
2022-12-18T00:31:34.837Z,33.70
2022-12-18T00:34:03.240Z,39.30
2022-12-18T00:36:34.278Z,33.30
2022-12-18T00:39:05.883Z,37.77
2022-12-18T00:41:52.086Z,32.13
2022-12-18T00:44:20.512Z,31.23
2022-12-18T00:46:49.011Z,30.17
2022-12-18T00:49:18.842Z,30.13
2022-12-18T00:51:47.299Z,25.67
2022-12-18T00:54:14.666Z,28.33
2022-12-18T00:56:49.992Z,26.60
2022-12-18T00:59:19.245Z,27.00
2022-12-18T01:01:47.226Z,31.77
2022-12-18T01:04:15.471Z,28.90
2022-12-18T01:06:46.202Z,29.73
2022-12-18T01:09:14.005Z,28.40
2022-12-18T01:11:41.264Z,35.07
2022-12-18T01:14:08.701Z,30.70
2022-12-18T01:16:38.550Z,30.30
2022-12-18T01:19:06.165Z,30.90
2022-12-18T01:21:34.620Z,35.20
2022-12-18T01:24:05.745Z,30.67
2022-12-18T01:26:33.109Z,31.63
2022-12-18T01:29:00.475Z,32.83
2022-12-18T01:31:30.451Z,29.30
2022-12-18T01:33:58.345Z,33.87
2022-12-18T01:36:34.148Z,24.97
2022-12-18T01:39:04.845Z,32.93
2022-12-18T01:41:52.957Z,24.73
2022-12-18T01:44:51.677Z,25.20
2022-12-18T01:47:29.943Z,22.77
2022-12-18T01:49:59.566Z,27.87
2022-12-18T01:52:33.227Z,25.13
2022-12-18T01:55:02.665Z,28.27
2022-12-18T01:57:30.646Z,24.60
2022-12-18T02:00:02.505Z,26.67
2022-12-18T02:02:42.922Z,26.73
2022-12-18T02:05:12.702Z,23.13
2022-12-18T02:08:18.018Z,28.43
2022-12-18T02:11:06.970Z,27.97
2022-12-18T02:13:56.503Z,28.90
2022-12-18T02:16:55.126Z,26.97
2022-12-18T02:19:42.076Z,21.00
2022-12-18T02:22:12.554Z,27.03
2022-12-18T02:24:56.354Z,25.90
2022-12-18T02:27:23.840Z,24.83
2022-12-18T02:29:59.089Z,27.53
2022-12-18T02:32:40.588Z,29.07
2022-12-18T02:35:14.801Z,26.50
2022-12-18T02:37:46.074Z,29.77
2022-12-18T02:40:16.246Z,26.60
2022-12-18T02:42:43.822Z,27.97
2022-12-18T02:45:13.835Z,30.87
2022-12-18T02:47:44.707Z,27.20
2022-12-18T02:50:27.384Z,31.43
2022-12-18T02:53:19.918Z,28.60
2022-12-18T02:56:10.609Z,26.50
2022-12-18T02:58:57.334Z,30.33
2022-12-18T03:01:56.142Z,23.80
2022-12-18T03:04:39.865Z,27.20
2022-12-18T03:07:12.446Z,25.13
2022-12-18T03:09:47.024Z,27.57
2022-12-18T03:12:37.821Z,26.70
2022-12-18T03:15:17.866Z,23.83
2022-12-18T03:17:55.707Z,28.17
2022-12-18T03:20:30.074Z,25.60
2022-12-18T03:23:05.079Z,28.17
2022-12-18T03:25:34.091Z,27.77
2022-12-18T03:28:04.086Z,29.63
2022-12-18T03:30:35.863Z,26.43
2022-12-18T03:33:14.341Z,24.83
2022-12-18T03:35:45.923Z,26.63
2022-12-18T03:38:13.723Z,26.53
2022-12-18T03:40:52.464Z,29.03
2022-12-18T03:43:45.759Z,25.33
2022-12-18T03:46:30.978Z,23.43
2022-12-18T03:49:11.435Z,27.00
2022-12-18T03:51:41.846Z,25.10
2022-12-18T03:54:11.279Z,31.50
2022-12-18T03:56:49.183Z,28.73
2022-12-18T03:59:18.006Z,27.53
2022-12-18T04:01:50.554Z,29.47
2022-12-18T04:04:19.907Z,29.30
2022-12-18T04:06:50.107Z,29.83
2022-12-18T04:09:20.886Z,25.50
2022-12-18T04:11:48.995Z,32.23
2022-12-18T04:14:18.255Z,28.97
2022-12-18T04:16:47.293Z,33.13
2022-12-18T04:19:17.259Z,32.93
2022-12-18T04:21:46.287Z,28.63
2022-12-18T04:24:15.218Z,30.57
2022-12-18T04:26:51.755Z,30.23
2022-12-18T04:29:24.349Z,30.00
2022-12-18T04:31:51.776Z,30.70
2022-12-18T04:34:19.996Z,31.53
2022-12-18T04:36:51.239Z,30.20
2022-12-18T04:39:18.987Z,36.97
2022-12-18T04:41:47.199Z,35.70
2022-12-18T04:44:15.046Z,31.43
2022-12-18T04:46:42.766Z,29.90
2022-12-18T04:49:11.356Z,32.40
2022-12-18T04:51:38.650Z,31.93
2022-12-18T04:54:06.025Z,29.37
2022-12-18T04:56:33.665Z,31.63
2022-12-18T04:59:01.310Z,35.60
2022-12-18T05:01:34.211Z,29.80
2022-12-18T05:04:02.933Z,27.67
2022-12-18T05:06:30.418Z,30.33
2022-12-18T05:08:57.923Z,36.63
2022-12-18T05:11:25.252Z,27.77
2022-12-18T05:13:52.556Z,30.27
2022-12-18T05:16:19.982Z,29.13
2022-12-18T05:18:47.445Z,26.10
2022-12-18T05:21:15.336Z,28.50
2022-12-18T05:23:43.345Z,28.13
2022-12-18T05:26:17.059Z,29.67
2022-12-18T05:28:45.016Z,29.03
2022-12-18T05:31:12.848Z,31.40
2022-12-18T05:33:40.675Z,28.60
2022-12-18T05:36:09.963Z,28.30
2022-12-18T05:38:39.474Z,27.37
2022-12-18T05:41:07.821Z,28.93
2022-12-18T05:43:37.164Z,28.53
2022-12-18T05:46:06.812Z,28.67
2022-12-18T05:48:34.419Z,34.77
2022-12-18T05:51:07.123Z,29.97
2022-12-18T05:53:36.262Z,27.97
2022-12-18T05:56:05.766Z,32.53
2022-12-18T05:58:34.023Z,31.47
2022-12-18T06:01:17.141Z,27.80
2022-12-18T06:03:45.536Z,27.77
2022-12-18T06:06:20.950Z,28.47
2022-12-18T06:08:48.707Z,33.20
2022-12-18T06:11:22.776Z,31.00
2022-12-18T06:13:59.061Z,27.37
2022-12-18T06:16:28.407Z,29.37
2022-12-18T06:18:59.930Z,29.10
2022-12-18T06:21:29.183Z,29.67
2022-12-18T06:23:57.127Z,25.07
2022-12-18T06:26:28.245Z,26.03
2022-12-18T06:28:56.947Z,28.00
2022-12-18T06:31:25.561Z,27.17
2022-12-18T06:33:52.976Z,25.10
2022-12-18T06:36:21.579Z,29.33
2022-12-18T06:38:48.950Z,27.67
2022-12-18T06:41:18.636Z,28.10
2022-12-18T06:43:46.105Z,27.20
2022-12-18T06:46:13.823Z,28.23
2022-12-18T06:48:41.291Z,26.10
2022-12-18T06:51:08.944Z,27.00
2022-12-18T06:53:36.221Z,23.97
2022-12-18T06:56:10.722Z,23.60
2022-12-18T06:58:39.648Z,27.80
2022-12-18T07:01:09.982Z,25.23
2022-12-18T07:03:39.242Z,26.03
2022-12-18T07:06:07.289Z,26.57
2022-12-18T07:08:34.720Z,25.73
2022-12-18T07:11:05.406Z,29.33
2022-12-18T07:13:33.123Z,24.87
2022-12-18T07:16:24.272Z,25.20
2022-12-18T07:18:53.107Z,30.03
2022-12-18T07:21:21.751Z,29.90
2022-12-18T07:23:49.591Z,28.20
2022-12-18T07:26:19.684Z,32.03
2022-12-18T07:28:47.132Z,29.23
2022-12-18T07:31:17.592Z,29.37
2022-12-18T07:33:46.315Z,31.17
2022-12-18T07:36:14.559Z,34.03
2022-12-18T07:38:42.443Z,33.83
2022-12-18T07:41:13.991Z,31.03
2022-12-18T07:43:43.195Z,28.60
2022-12-18T07:46:13.442Z,31.93
2022-12-18T07:48:49.557Z,30.47
2022-12-18T07:51:19.276Z,28.80
2022-12-18T07:53:47.022Z,30.40
2022-12-18T07:56:29.462Z,27.23
2022-12-18T07:58:59.195Z,26.47
2022-12-18T08:01:26.843Z,31.27
2022-12-18T08:03:54.472Z,30.63
2022-12-18T08:06:24.283Z,32.17
2022-12-18T08:08:56.516Z,30.03
2022-12-18T08:11:26.250Z,28.73
2022-12-18T08:13:56.782Z,31.80
2022-12-18T08:16:24.251Z,29.73
2022-12-18T08:18:53.527Z,31.40
2022-12-18T08:21:24.224Z,32.97
2022-12-18T08:23:53.797Z,34.70
2022-12-18T08:26:21.844Z,33.87
2022-12-18T08:28:50.086Z,30.97
2022-12-18T08:31:19.767Z,28.23
2022-12-18T08:33:50.560Z,35.80
2022-12-18T08:36:18.335Z,29.33
2022-12-18T08:38:46.064Z,34.93
2022-12-18T08:41:15.736Z,36.00
2022-12-18T08:44:01.935Z,33.47
2022-12-18T08:46:36.917Z,33.00
2022-12-18T08:49:05.430Z,39.50
2022-12-18T08:51:33.825Z,37.70
2022-12-18T08:54:02.981Z,37.50
2022-12-18T08:56:32.605Z,31.13
2022-12-18T08:59:00.407Z,29.93
2022-12-18T09:01:28.246Z,32.77
2022-12-18T09:03:56.026Z,37.90
2022-12-18T09:06:23.867Z,38.53
2022-12-18T09:08:51.716Z,42.03
2022-12-18T09:11:27.495Z,31.53
2022-12-18T09:13:56.563Z,34.53
2022-12-18T09:16:31.694Z,40.43
2022-12-18T09:19:02.610Z,37.23
2022-12-18T09:31:12.542Z,35.00
2022-12-18T09:33:41.225Z,30.13
2022-12-18T09:36:13.369Z,35.40
2022-12-18T09:38:41.945Z,38.80
2022-12-18T09:41:20.957Z,34.83
2022-12-18T09:43:53.789Z,32.93
2022-12-18T09:46:30.943Z,34.97
2022-12-18T09:55:47.020Z,35.23
2022-12-18T09:58:42.097Z,38.53
2022-12-18T10:01:32.027Z,38.07
2022-12-18T10:04:09.897Z,36.27
2022-12-18T10:07:31.599Z,38.67
2022-12-18T10:10:16.842Z,39.37
2022-12-18T10:13:22.704Z,39.30
2022-12-18T10:19:44.801Z,46.43
2022-12-18T10:22:44.580Z,43.37
2022-12-18T10:25:28.020Z,42.67
2022-12-18T10:28:14.252Z,40.97
2022-12-18T10:30:47.382Z,39.40
2022-12-18T10:33:23.302Z,39.07
2022-12-18T10:35:59.630Z,43.03
2022-12-18T10:38:33.484Z,44.43
2022-12-18T10:41:02.170Z,44.33
2022-12-18T10:50:05.356Z,42.37
2022-12-18T10:58:31.656Z,43.23
2022-12-18T11:01:07.124Z,50.87
2022-12-18T11:03:40.869Z,45.83
2022-12-18T11:06:17.644Z,50.10
2022-12-18T11:09:12.222Z,47.43
2022-12-18T11:11:41.528Z,47.73
2022-12-18T11:14:22.870Z,51.43
2022-12-18T11:29:18.054Z,46.30
2022-12-18T11:31:47.922Z,49.83
2022-12-18T11:34:30.591Z,55.40
2022-12-18T11:37:00.918Z,48.40
2022-12-18T11:39:39.637Z,50.87
2022-12-18T11:42:20.925Z,54.73
2022-12-18T11:44:55.964Z,44.80
2022-12-18T11:47:38.493Z,53.93
2022-12-18T11:50:19.863Z,52.67
2022-12-18T11:52:51.494Z,50.50
2022-12-18T11:55:33.870Z,50.60
2022-12-18T11:58:31.823Z,44.20
2022-12-18T12:13:59.873Z,56.70
2022-12-18T12:16:40.962Z,51.50
2022-12-18T12:19:23.637Z,49.63
2022-12-18T12:22:09.893Z,48.27
2022-12-18T12:24:49.814Z,54.70
2022-12-18T12:27:37.075Z,49.80
2022-12-18T12:30:06.369Z,52.63
2022-12-18T12:32:48.665Z,53.67
2022-12-18T12:35:30.590Z,53.13
2022-12-18T12:38:16.573Z,47.23
2022-12-18T12:41:04.238Z,50.70
2022-12-18T12:43:51.062Z,56.70
2022-12-18T12:46:23.095Z,60.03
2022-12-18T12:48:58.288Z,53.63
2022-12-18T12:51:33.656Z,49.33
2022-12-18T12:54:07.673Z,56.50
2022-12-18T13:00:07.843Z,56.93
2022-12-18T13:03:04.458Z,47.83
2022-12-18T13:12:24.169Z,48.13
2022-12-18T13:14:52.050Z,47.47
2022-12-18T13:17:24.632Z,47.63
2022-12-18T13:20:04.752Z,46.10
2022-12-18T13:22:38.579Z,51.57
2022-12-18T13:25:31.323Z,49.47
2022-12-18T13:28:09.877Z,50.20
2022-12-18T13:30:46.519Z,46.90
2022-12-18T13:33:20.793Z,54.47
2022-12-18T13:35:48.545Z,51.07
2022-12-18T13:38:26.890Z,53.70
2022-12-18T13:40:56.235Z,55.93
2022-12-18T13:43:23.607Z,48.17
2022-12-18T13:46:24.229Z,48.23
2022-12-18T13:49:38.453Z,56.80
2022-12-18T13:52:25.538Z,54.17
2022-12-18T13:55:02.117Z,53.50
2022-12-18T13:57:44.646Z,57.10
2022-12-18T14:00:18.161Z,49.33
2022-12-18T14:02:46.745Z,52.20
2022-12-18T14:05:29.744Z,52.20
2022-12-18T14:08:02.555Z,49.37
2022-12-18T14:10:48.147Z,50.50
2022-12-18T14:13:24.998Z,46.00
2022-12-18T14:15:52.610Z,47.30
2022-12-18T14:18:43.168Z,51.00
2022-12-18T14:21:33.419Z,46.13
2022-12-18T14:24:14.419Z,46.47
2022-12-18T14:26:42.089Z,54.40
2022-12-18T14:29:23.945Z,43.07
2022-12-18T14:32:18.301Z,47.93
2022-12-18T14:34:56.435Z,53.20
2022-12-18T14:37:26.731Z,48.57
2022-12-18T14:40:10.670Z,46.73
2022-12-18T14:42:38.872Z,43.97
2022-12-18T14:45:41.108Z,44.37
2022-12-18T14:48:17.833Z,47.47
2022-12-18T14:51:17.675Z,47.07
2022-12-18T14:54:04.095Z,47.70
2022-12-18T14:56:44.327Z,48.57
2022-12-18T14:59:23.862Z,38.77
2022-12-18T15:02:03.971Z,45.43
2022-12-18T15:04:36.163Z,47.30
2022-12-18T15:07:17.624Z,49.50
2022-12-18T15:10:05.048Z,44.37
2022-12-18T15:12:51.316Z,52.40
2022-12-18T15:15:34.223Z,48.13
2022-12-18T15:18:08.706Z,57.43
2022-12-18T15:20:43.999Z,48.87
2022-12-18T15:23:19.356Z,54.57
2022-12-18T15:25:48.816Z,47.53
2022-12-18T15:28:25.191Z,43.77
2022-12-18T15:31:01.075Z,52.00
2022-12-18T15:33:37.450Z,50.47
2022-12-18T15:36:10.767Z,49.00
2022-12-18T15:38:38.401Z,47.77
2022-12-18T15:41:17.781Z,49.60
2022-12-18T15:43:50.119Z,46.33
2022-12-18T15:46:20.521Z,50.47
2022-12-18T15:48:57.987Z,46.47
2022-12-18T15:51:35.329Z,50.03
2022-12-18T15:54:05.670Z,49.63
2022-12-18T15:56:53.974Z,52.00
2022-12-18T15:59:22.360Z,44.50
2022-12-18T16:01:52.164Z,49.37
2022-12-18T16:04:21.771Z,46.73
2022-12-18T16:09:37.748Z,45.23
2022-12-18T16:12:06.220Z,44.70
2022-12-18T16:14:34.096Z,48.70
2022-12-18T16:17:04.253Z,48.53
2022-12-18T16:19:31.575Z,69.03
2022-12-18T16:22:01.143Z,49.87
2022-12-18T16:24:31.206Z,57.97
2022-12-18T16:27:00.948Z,85.27
2022-12-18T16:29:30.213Z,58.23
2022-12-18T16:31:59.624Z,61.07
2022-12-18T16:34:30.977Z,55.17
2022-12-18T16:37:06.322Z,58.30
2022-12-18T16:39:38.516Z,64.43
2022-12-18T16:42:15.255Z,67.50
2022-12-18T16:44:43.295Z,53.93
2022-12-18T16:47:12.934Z,64.63
2022-12-18T16:49:45.123Z,65.53
2022-12-18T16:52:14.288Z,59.13
2022-12-18T16:54:42.423Z,54.37
2022-12-18T16:57:12.952Z,59.63
2022-12-18T16:59:40.536Z,58.00
2022-12-18T17:02:15.754Z,56.37
2022-12-18T17:04:45.906Z,56.27
2022-12-18T17:07:14.823Z,51.63
2022-12-18T17:09:42.522Z,48.73
2022-12-18T17:12:10.479Z,48.33
2022-12-18T17:14:38.936Z,51.77
2022-12-18T17:17:20.884Z,79.00
2022-12-18T17:19:50.296Z,85.37
2022-12-18T17:22:21.073Z,77.70
2022-12-18T17:24:51.944Z,60.90
2022-12-18T17:27:28.168Z,52.30
2022-12-18T17:29:55.952Z,56.30
2022-12-18T17:32:23.668Z,55.93
2022-12-18T17:34:51.037Z,56.00
2022-12-18T17:37:18.429Z,57.63
2022-12-18T17:39:45.737Z,55.10
2022-12-18T17:42:15.035Z,60.77
2022-12-18T17:44:43.634Z,60.07
2022-12-18T17:47:12.878Z,86.03
2022-12-18T18:03:10.050Z,67.03
2022-12-18T18:18:08.553Z,55.00
2022-12-18T18:23:36.230Z,54.50
2022-12-18T18:38:18.184Z,78.00
2022-12-18T18:49:36.542Z,61.07
2022-12-18T19:35:07.828Z,57.87
2022-12-18T20:24:31.381Z,49.57
2022-12-18T20:29:49.843Z,47.23
2022-12-18T20:35:27.997Z,43.60
2022-12-18T20:37:57.226Z,49.13
2022-12-18T20:47:18.121Z,43.83
2022-12-18T20:49:54.980Z,46.17
2022-12-18T20:56:01.129Z,48.67
2022-12-18T20:59:03.461Z,49.80
2022-12-18T21:01:44.334Z,39.90
2022-12-18T21:13:31.790Z,46.00
2022-12-18T21:16:17.649Z,42.87
2022-12-18T21:21:38.762Z,46.47
2022-12-18T21:24:13.463Z,52.83
2022-12-18T21:26:48.974Z,46.17
2022-12-18T21:35:28.104Z,46.27
2022-12-18T21:41:45.179Z,44.40
2022-12-18T21:50:45.631Z,40.43
2022-12-18T21:58:08.130Z,45.47
2022-12-18T22:23:39.998Z,52.47
2022-12-18T22:29:33.243Z,39.37
2022-12-18T22:35:16.327Z,49.53
2022-12-18T23:13:19.290Z,40.57
2022-12-18T23:15:55.074Z,46.10
2022-12-18T23:18:55.159Z,42.27
2022-12-18T23:32:25.549Z,41.30
2022-12-18T23:41:50.166Z,46.20
2022-12-18T23:44:47.733Z,45.30
2022-12-18T23:57:54.547Z,43.00
